Clifton, New Jersey
Current Conditions -  °F | °C
As of 10:51 PM on Friday 19 Dec 2014 (Local Time) from KTEB Reporting Station
Broken Clouds Broken Clouds  
Wind Chill: 26°   Ceiling: 3200
Heat Index: 32°   Visibility: 10mi
Dew Point: 21°   Wind: 6mph
Humidity: 64%   Direction: 330°NNW
Pressure: 30.18"   Gusts: NA
Location:  40.87°N, 74.16°W
Report Text: KTEB 200351Z 33005KT 10SM BKN032 00/M06 A3018 RMK AO2 SLP219 T00001061
Loading
Personal Weather Stations






























Interactive Weather Map New forecast layout! Learn more

10-Day Weather Forecast

Advertisements
Track Severe Weather on mobile